This is the latest recevied weather packets stored in our database for station/object KA1ROH. If no packets are shown the sender has not sent any weather packets the latest 10 day(s).
| Time | Temp. | Humidity | Pressure | Rain* | Wind** | Luminosity | Snow |
|---|---|---|---|---|---|---|---|
| 1777681459 | 10.56° C | 50% | 1010.8 hPa | 0 mm | - | - | - |
| 1777677855 | 11.67° C | 45% | 1010.5 hPa | 0 mm | - | - | - |
| 1777677254 | 11.67° C | 51% | 1010.5 hPa | 0 mm | - | - | - |
| 1777672313 | 12.22° C | 45% | 1010.2 hPa | 0 mm | - | - | - |
| 1777670511 | 12.78° C | 45% | 1010.2 hPa | 0 mm | - | - | - |
| 1777667508 | 12.22° C | 47% | 1010.2 hPa | 0 mm | - | - | - |
| 1777666908 | 12.22° C | 46% | 1010.2 hPa | 0 mm | - | - | - |
| 1777665285 | 12.22° C | 50% | 1009.8 hPa | 0 mm | - | - | - |
| 1777656213 | 10.56° C | 48% | 1010.5 hPa | 0 mm | - | - | - |
| 1777654410 | 10° C | 50% | 1010.8 hPa | 0 mm | - | - | - |
| 1777651345 | 9.44° C | 52% | 1011.5 hPa | 0 mm | - | - | - |
| 1777650744 | 8.89° C | 51% | 1011.5 hPa | 0 mm | - | - | - |
| 1777650143 | 8.89° C | 54% | 1011.5 hPa | 0 mm | - | - | - |
| 1777648341 | 8.33° C | 55% | 1011.5 hPa | 0 mm | - | - | - |
| 1777645907 | 7.78° C | 66% | 1011.9 hPa | 0 mm | - | - | - |
| 1777643473 | 6.67° C | 68% | 1011.9 hPa | 0 mm | - | - | - |
| 1777641671 | 6.67° C | 67% | 1011.9 hPa | 0 mm | - | - | - |
| 1777641070 | 6.11° C | 68% | 1011.9 hPa | 0 mm | - | - | - |
| 1777640470 | 6.11° C | 69% | 1011.9 hPa | 0 mm | - | - | - |
| 1777636813 | 6.11° C | 72% | 1011.9 hPa | 0 mm | - | - | - |
| 1777635611 | 6.11° C | 76% | 1011.9 hPa | 0 mm | - | - | - |
| 1777634410 | 5.56° C | 76% | 1011.5 hPa | 0 mm | - | - | - |
| 1777631976 | 5.56° C | 78% | 1011.2 hPa | 0 mm | - | - | - |
| 1777623419 | 6.67° C | 78% | 1010.2 hPa | 0 mm | - | - | - |
| 1777622787 | 6.67° C | 78% | 1010.2 hPa | 0 mm | - | - | - |
* Rain latest hour (hover to see other rain measurements)
** Current wind speed in m/s (hover to see current wind gust speed)